createdAt,value
2023-04-30T00:01:15.985Z,24.91
2023-04-30T00:03:21.096Z,24.9
2023-04-30T00:05:26.371Z,24.92
2023-04-30T00:07:31.409Z,24.9
2023-04-30T00:09:36.571Z,24.89
2023-04-30T00:11:41.651Z,24.9
2023-04-30T00:13:46.693Z,24.92
2023-04-30T00:15:51.818Z,24.94
2023-04-30T00:17:56.970Z,24.95
2023-04-30T00:20:02.207Z,24.95
2023-04-30T00:22:07.320Z,24.96
2023-04-30T00:24:12.343Z,24.94
2023-04-30T00:26:17.416Z,24.92
2023-04-30T00:28:22.574Z,24.92
2023-04-30T00:30:27.813Z,24.94
2023-04-30T00:32:32.855Z,24.95
2023-04-30T00:34:37.997Z,24.95
2023-04-30T00:36:43.110Z,24.95
2023-04-30T00:38:48.140Z,24.95
2023-04-30T00:40:53.191Z,24.94
2023-04-30T00:42:58.206Z,24.94
2023-04-30T00:45:03.259Z,24.94
2023-04-30T00:47:08.408Z,24.93
2023-04-30T00:49:13.651Z,24.93
2023-04-30T00:51:18.851Z,24.93
2023-04-30T00:53:24.269Z,24.92
2023-04-30T00:55:29.278Z,24.91
2023-04-30T00:57:34.382Z,24.91
2023-04-30T00:59:39.391Z,24.91
2023-04-30T01:01:44.458Z,24.9
2023-04-30T01:03:49.843Z,24.9
2023-04-30T01:05:55.093Z,24.91
2023-04-30T01:08:00.479Z,24.89
2023-04-30T01:10:05.524Z,24.9
2023-04-30T01:12:10.614Z,24.9
2023-04-30T01:14:15.648Z,24.89
2023-04-30T01:16:20.805Z,24.88
2023-04-30T01:18:26.262Z,24.88
2023-04-30T01:20:31.672Z,24.87
2023-04-30T01:22:36.719Z,24.86
2023-04-30T01:24:41.724Z,24.85
2023-04-30T01:26:46.811Z,24.83
2023-04-30T01:28:52.044Z,24.82
2023-04-30T01:30:57.104Z,24.8
2023-04-30T01:33:02.543Z,24.8
2023-04-30T01:35:07.898Z,24.79
2023-04-30T01:37:13.018Z,24.81
2023-04-30T01:39:18.220Z,24.81
2023-04-30T01:41:23.238Z,24.8
2023-04-30T01:43:28.438Z,24.79
2023-04-30T01:45:33.422Z,24.78
2023-04-30T01:47:38.450Z,24.77
2023-04-30T01:49:43.707Z,24.76
2023-04-30T01:51:48.810Z,24.74
2023-04-30T01:53:53.942Z,24.72
2023-04-30T01:55:58.960Z,24.71
2023-04-30T01:58:04.532Z,24.68
2023-04-30T02:00:09.534Z,24.69
2023-04-30T02:02:14.564Z,24.68
2023-04-30T02:04:19.710Z,24.66
2023-04-30T02:06:24.784Z,24.68
2023-04-30T02:08:30.102Z,24.67
2023-04-30T02:10:35.339Z,24.66
2023-04-30T02:12:40.423Z,24.65
2023-04-30T02:14:45.499Z,24.62
2023-04-30T02:16:50.574Z,24.62
2023-04-30T02:18:55.727Z,24.61
2023-04-30T02:21:00.796Z,24.59
2023-04-30T02:23:05.911Z,24.59
2023-04-30T02:25:10.938Z,24.56
2023-04-30T02:27:16.074Z,24.54
2023-04-30T02:29:21.094Z,24.53
2023-04-30T02:31:26.242Z,24.52
2023-04-30T02:33:31.486Z,24.51
2023-04-30T02:35:36.611Z,24.51
2023-04-30T02:37:41.825Z,24.5
2023-04-30T02:39:46.869Z,24.48
2023-04-30T02:41:51.884Z,24.47
2023-04-30T02:43:56.880Z,24.46
2023-04-30T02:46:01.954Z,24.43
2023-04-30T02:48:07.153Z,24.42
2023-04-30T02:50:12.577Z,24.41
2023-04-30T02:52:17.599Z,24.41
2023-04-30T02:54:22.796Z,24.4
2023-04-30T02:56:27.809Z,24.4
2023-04-30T02:58:32.860Z,24.39
2023-04-30T03:00:37.888Z,24.38
2023-04-30T03:02:42.954Z,24.39
2023-04-30T03:04:48.392Z,24.38
2023-04-30T03:06:53.453Z,24.38
2023-04-30T03:08:58.490Z,24.37
2023-04-30T03:11:03.524Z,24.35
2023-04-30T03:13:08.631Z,24.31
2023-04-30T03:15:13.654Z,24.31
2023-04-30T03:17:18.760Z,24.31
2023-04-30T03:19:24.056Z,24.31
2023-04-30T03:21:29.185Z,24.29
2023-04-30T03:23:34.431Z,24.3
2023-04-30T03:25:39.582Z,24.27
2023-04-30T03:27:44.599Z,24.27
2023-04-30T03:29:49.627Z,24.26
2023-04-30T03:31:54.971Z,24.26
2023-04-30T03:34:00.578Z,24.27
2023-04-30T03:36:05.838Z,24.27
2023-04-30T03:38:10.870Z,24.27
2023-04-30T03:40:15.950Z,24.28
2023-04-30T03:42:20.971Z,24.27
2023-04-30T03:44:26.183Z,24.28
2023-04-30T03:46:31.282Z,24.27
2023-04-30T03:48:36.534Z,24.25
2023-04-30T03:50:41.586Z,24.24
2023-04-30T03:52:46.602Z,24.24
2023-04-30T03:54:51.793Z,24.24
2023-04-30T03:56:56.881Z,24.23
2023-04-30T03:59:02.018Z,24.23
2023-04-30T04:01:07.016Z,24.23
2023-04-30T04:03:12.182Z,24.22
2023-04-30T04:05:17.549Z,24.22
2023-04-30T04:07:22.609Z,24.2
2023-04-30T04:09:27.627Z,24.2
2023-04-30T04:11:32.761Z,24.2
2023-04-30T04:13:37.775Z,24.2
2023-04-30T04:15:42.817Z,24.2
2023-04-30T04:17:48.211Z,24.2
2023-04-30T04:19:53.700Z,24.2
2023-04-30T04:21:59.427Z,24.21
2023-04-30T04:24:04.466Z,24.21
2023-04-30T04:26:09.495Z,24.22
2023-04-30T04:28:14.836Z,24.22
2023-04-30T04:30:19.897Z,24.22
2023-04-30T04:32:24.975Z,24.22
2023-04-30T04:34:30.152Z,24.21
2023-04-30T04:36:35.160Z,24.2
2023-04-30T04:38:40.194Z,24.22
2023-04-30T04:40:45.305Z,24.22
2023-04-30T04:42:50.299Z,24.2
2023-04-30T04:44:55.321Z,24.2
2023-04-30T04:47:00.394Z,24.2
2023-04-30T04:49:05.563Z,24.2
2023-04-30T04:51:10.773Z,24.18
2023-04-30T04:53:15.957Z,24.19
2023-04-30T04:55:21.044Z,24.19
2023-04-30T04:57:26.269Z,24.19
2023-04-30T04:59:31.424Z,24.19
2023-04-30T05:01:36.492Z,24.19
2023-04-30T05:03:41.992Z,24.19
2023-04-30T05:05:47.301Z,24.19
2023-04-30T05:07:52.396Z,24.21
2023-04-30T05:09:57.629Z,24.22
2023-04-30T05:12:02.773Z,24.21
2023-04-30T05:14:07.854Z,24.19
2023-04-30T05:16:12.960Z,24.19
2023-04-30T05:18:18.134Z,24.19
2023-04-30T05:20:23.150Z,24.17
2023-04-30T05:22:28.568Z,24.16
2023-04-30T05:24:33.787Z,24.17
2023-04-30T05:26:38.807Z,24.17
2023-04-30T05:28:43.817Z,24.17
2023-04-30T05:30:49.666Z,24.16
2023-04-30T05:32:54.840Z,24.15
2023-04-30T05:35:00.230Z,24.15
2023-04-30T05:37:05.349Z,24.15
2023-04-30T05:39:10.437Z,24.16
2023-04-30T05:41:15.534Z,24.15
2023-04-30T05:43:20.646Z,24.16
2023-04-30T05:45:25.705Z,24.15
2023-04-30T05:47:30.760Z,24.17
2023-04-30T05:49:36.325Z,24.17
2023-04-30T05:51:41.615Z,24.17
2023-04-30T05:53:46.673Z,24.17
2023-04-30T05:55:51.699Z,24.17
2023-04-30T05:57:56.781Z,24.16
2023-04-30T06:00:01.849Z,24.16
2023-04-30T06:02:06.924Z,24.15
2023-04-30T06:04:12.258Z,24.14
2023-04-30T06:06:17.504Z,24.15
2023-04-30T06:08:22.793Z,24.13
2023-04-30T06:10:27.932Z,24.14
2023-04-30T06:12:33.096Z,24.14
2023-04-30T06:14:38.213Z,24.12
2023-04-30T06:16:43.342Z,24.14
2023-04-30T06:18:48.617Z,24.14
2023-04-30T06:20:56.837Z,24.14
2023-04-30T06:23:01.870Z,24.14
2023-04-30T06:25:06.900Z,24.16
2023-04-30T06:27:12.036Z,24.15
2023-04-30T06:29:17.036Z,24.14
2023-04-30T06:31:22.181Z,24.15
2023-04-30T06:33:27.331Z,24.16
2023-04-30T06:35:32.392Z,24.17
2023-04-30T06:37:37.670Z,24.17
2023-04-30T06:39:46.041Z,24.18
2023-04-30T06:41:51.082Z,24.17
2023-04-30T06:43:56.152Z,24.2
2023-04-30T06:46:01.306Z,24.19
2023-04-30T06:48:06.694Z,24.2
2023-04-30T06:50:12.054Z,24.13
2023-04-30T06:52:17.228Z,24.02
2023-04-30T06:54:22.247Z,23.92
2023-04-30T06:56:27.286Z,23.81
2023-04-30T06:58:32.329Z,23.73
2023-04-30T07:00:37.389Z,23.65
2023-04-30T07:02:42.494Z,23.59
2023-04-30T07:04:47.914Z,23.53
2023-04-30T07:06:53.119Z,23.44
2023-04-30T07:08:58.172Z,23.41
2023-04-30T07:11:03.197Z,23.38
2023-04-30T07:13:08.289Z,23.35
2023-04-30T07:15:13.366Z,23.34
2023-04-30T07:17:18.408Z,23.35
2023-04-30T07:19:23.577Z,23.35
2023-04-30T07:21:28.623Z,23.33
2023-04-30T07:23:33.767Z,23.31
2023-04-30T07:25:38.825Z,23.32
2023-04-30T07:27:43.888Z,23.31
2023-04-30T07:29:48.906Z,23.34
2023-04-30T07:31:54.018Z,23.33
2023-04-30T07:33:59.419Z,23.32
2023-04-30T07:36:04.488Z,23.32
2023-04-30T07:38:09.510Z,23.35
2023-04-30T07:40:19.399Z,23.36
2023-04-30T07:42:39.734Z,23.37
2023-04-30T07:44:44.746Z,23.38
2023-04-30T07:46:49.752Z,23.39
2023-04-30T07:48:54.803Z,23.39
2023-04-30T07:50:59.869Z,23.37
2023-04-30T07:53:04.866Z,23.34
2023-04-30T07:55:09.973Z,23.33
2023-04-30T07:57:15.181Z,23.35
2023-04-30T07:59:20.384Z,23.36
2023-04-30T08:01:25.474Z,23.38
2023-04-30T08:03:30.679Z,23.37
2023-04-30T08:05:36.310Z,23.37
2023-04-30T08:07:41.342Z,23.36
2023-04-30T08:09:46.486Z,23.37
2023-04-30T08:11:51.504Z,23.38
2023-04-30T08:13:56.652Z,23.37
2023-04-30T08:16:01.703Z,23.37
2023-04-30T08:18:06.886Z,23.37
2023-04-30T08:20:12.235Z,23.36
2023-04-30T08:22:17.377Z,23.38
2023-04-30T08:24:22.504Z,23.38
2023-04-30T08:26:27.574Z,23.43
2023-04-30T08:28:32.668Z,23.49
2023-04-30T08:30:37.804Z,23.53
2023-04-30T08:32:42.893Z,23.55
2023-04-30T08:34:48.190Z,23.58
2023-04-30T08:36:53.238Z,23.58
2023-04-30T08:38:58.301Z,23.56
2023-04-30T08:41:03.424Z,23.55
2023-04-30T08:43:08.450Z,23.56
2023-04-30T08:45:13.652Z,23.58
2023-04-30T08:47:18.806Z,23.6
2023-04-30T08:49:24.928Z,23.59
2023-04-30T08:51:30.081Z,23.64
2023-04-30T08:53:35.177Z,23.65
2023-04-30T08:55:40.246Z,23.67
2023-04-30T08:57:45.763Z,23.69
2023-04-30T08:59:50.927Z,23.72
2023-04-30T09:01:56.231Z,23.73
2023-04-30T09:04:01.635Z,23.76
2023-04-30T09:06:07.185Z,23.81
2023-04-30T09:08:12.402Z,23.85
2023-04-30T09:10:17.539Z,23.93
2023-04-30T09:12:22.628Z,23.99
2023-04-30T09:14:27.803Z,24.04
2023-04-30T09:16:33.174Z,24.1
2023-04-30T09:18:38.434Z,24.18
2023-04-30T09:20:43.481Z,24.27
2023-04-30T09:22:48.554Z,24.35
2023-04-30T09:24:53.605Z,24.31
2023-04-30T09:26:58.646Z,24.14
2023-04-30T09:29:03.780Z,23.9
2023-04-30T09:31:08.876Z,23.68
2023-04-30T09:33:14.255Z,23.57
2023-04-30T09:35:19.591Z,23.47
2023-04-30T09:37:24.711Z,23.42
2023-04-30T09:39:29.872Z,23.34
2023-04-30T09:41:34.883Z,23.27
2023-04-30T09:43:39.887Z,23.22
2023-04-30T09:45:44.951Z,23.18
2023-04-30T09:47:50.244Z,23.13
2023-04-30T09:49:58.570Z,23.1
2023-04-30T09:52:03.899Z,23.03
2023-04-30T09:54:08.941Z,22.99
2023-04-30T09:56:13.987Z,22.94
2023-04-30T09:58:19.024Z,22.91
2023-04-30T10:00:24.081Z,22.86
2023-04-30T10:02:29.159Z,22.81
2023-04-30T10:04:34.282Z,22.76
2023-04-30T10:06:39.351Z,22.77
2023-04-30T10:08:44.500Z,22.79
2023-04-30T10:10:49.504Z,22.86
2023-04-30T10:12:54.516Z,22.86
2023-04-30T10:14:59.571Z,22.89
2023-04-30T10:17:04.594Z,22.9
2023-04-30T10:19:09.694Z,22.91
2023-04-30T10:21:15.293Z,22.9
2023-04-30T10:23:20.412Z,22.94
2023-04-30T10:25:25.617Z,22.94
2023-04-30T10:27:30.707Z,22.99
2023-04-30T10:29:35.834Z,23.03
2023-04-30T10:31:41.033Z,23.1
2023-04-30T10:33:46.227Z,23.14
2023-04-30T10:35:51.323Z,23.18
2023-04-30T10:37:56.399Z,23.18
2023-04-30T10:40:01.553Z,23.19
2023-04-30T10:42:06.663Z,23.2
2023-04-30T10:44:11.691Z,23.2
2023-04-30T10:46:16.778Z,23.21
2023-04-30T10:48:21.994Z,23.18
2023-04-30T10:50:27.075Z,23.15
2023-04-30T10:52:32.162Z,23.16
2023-04-30T10:54:37.313Z,23.15
2023-04-30T10:56:42.512Z,23.12
2023-04-30T10:58:47.559Z,23.12
2023-04-30T11:00:52.619Z,23.16
2023-04-30T11:02:57.730Z,23.21
2023-04-30T11:05:02.991Z,23.17
2023-04-30T11:07:08.593Z,23.18
2023-04-30T11:09:13.720Z,23.21
2023-04-30T11:11:18.807Z,23.23
2023-04-30T11:13:24.374Z,23.22
2023-04-30T11:15:29.812Z,23.22
2023-04-30T11:17:35.178Z,23.25
2023-04-30T11:19:40.439Z,23.25
2023-04-30T11:21:45.553Z,23.23
2023-04-30T11:23:50.608Z,23.21
2023-04-30T11:25:55.769Z,23.22
2023-04-30T11:28:00.830Z,23.27
2023-04-30T11:30:06.177Z,23.34
2023-04-30T11:32:11.453Z,23.37
2023-04-30T11:34:16.566Z,23.39
2023-04-30T11:36:21.572Z,23.44
2023-04-30T11:38:26.642Z,23.43
2023-04-30T11:40:31.814Z,23.45
2023-04-30T11:42:36.896Z,23.49
2023-04-30T11:44:42.085Z,23.46
2023-04-30T11:46:47.133Z,23.46
2023-04-30T11:48:52.330Z,23.45
2023-04-30T11:50:57.370Z,23.5
2023-04-30T11:53:02.463Z,23.53
2023-04-30T11:55:07.523Z,23.57
2023-04-30T11:57:12.598Z,23.59
2023-04-30T11:59:17.768Z,23.6
2023-04-30T12:01:22.878Z,23.62
2023-04-30T12:03:27.988Z,23.62
2023-04-30T12:05:33.539Z,23.63
2023-04-30T12:07:38.611Z,23.64
2023-04-30T12:09:43.725Z,23.64
2023-04-30T12:11:48.857Z,23.66
2023-04-30T12:13:53.933Z,23.67
2023-04-30T12:15:59.083Z,23.69
2023-04-30T12:18:04.238Z,23.69
2023-04-30T12:20:09.608Z,23.66
2023-04-30T12:22:14.662Z,23.64
2023-04-30T12:24:19.800Z,23.64
2023-04-30T12:26:24.837Z,23.67
2023-04-30T12:28:29.910Z,23.65
2023-04-30T12:30:34.980Z,23.65
2023-04-30T12:32:40.220Z,23.67
2023-04-30T12:34:45.430Z,23.74
2023-04-30T12:36:50.456Z,23.76
2023-04-30T12:38:55.486Z,23.78
2023-04-30T12:41:01.334Z,23.77
2023-04-30T12:43:07.103Z,23.77
2023-04-30T12:45:12.347Z,23.77
2023-04-30T12:47:17.406Z,23.78
2023-04-30T12:49:22.574Z,23.78
2023-04-30T12:51:27.627Z,23.76
2023-04-30T12:53:32.676Z,23.78
2023-04-30T12:55:37.892Z,23.79
2023-04-30T12:57:42.938Z,23.78
2023-04-30T12:59:48.177Z,23.75
2023-04-30T13:01:53.261Z,23.73
2023-04-30T13:03:58.563Z,23.73
2023-04-30T13:06:04.062Z,23.76
2023-04-30T13:08:09.422Z,23.72
2023-04-30T13:10:15.064Z,23.72
2023-04-30T13:12:20.188Z,23.73
2023-04-30T13:14:25.392Z,23.78
2023-04-30T13:16:30.502Z,23.81
2023-04-30T13:18:35.874Z,23.78
2023-04-30T13:20:41.193Z,23.82
2023-04-30T13:22:46.185Z,23.84
2023-04-30T13:24:51.226Z,23.86
2023-04-30T13:26:56.270Z,23.83
2023-04-30T13:29:02.238Z,23.86
2023-04-30T13:31:07.299Z,23.83
2023-04-30T13:33:12.624Z,23.78
2023-04-30T13:35:17.937Z,23.75
2023-04-30T13:37:23.101Z,23.78
2023-04-30T13:39:28.375Z,23.77
2023-04-30T13:41:33.751Z,23.78
2023-04-30T13:43:41.533Z,23.8
2023-04-30T13:45:47.243Z,23.83
2023-04-30T13:47:52.357Z,23.83
2023-04-30T13:49:57.705Z,23.81
2023-04-30T13:52:03.022Z,23.79
2023-04-30T13:54:08.111Z,23.79
2023-04-30T13:56:13.198Z,23.8
2023-04-30T13:58:18.270Z,23.83
2023-04-30T14:00:23.359Z,23.86
2023-04-30T14:02:28.583Z,23.88
2023-04-30T14:04:33.869Z,23.89
2023-04-30T14:06:39.074Z,23.91
2023-04-30T14:08:44.368Z,23.89
2023-04-30T14:10:49.408Z,23.85
2023-04-30T14:12:54.458Z,23.85
2023-04-30T14:14:59.550Z,23.84
2023-04-30T14:17:04.582Z,23.85
2023-04-30T14:19:09.600Z,23.84
2023-04-30T14:21:14.684Z,23.83
2023-04-30T14:23:19.825Z,23.82
2023-04-30T14:25:24.889Z,23.84
2023-04-30T14:27:29.891Z,23.79
2023-04-30T14:29:35.000Z,23.71
2023-04-30T14:31:40.204Z,23.64
2023-04-30T14:33:45.417Z,23.58
2023-04-30T14:35:50.402Z,23.54
2023-04-30T14:37:55.368Z,23.56
2023-04-30T14:40:00.382Z,23.53
2023-04-30T14:42:05.493Z,23.51
2023-04-30T14:44:10.719Z,23.51
2023-04-30T14:46:15.802Z,23.47
2023-04-30T14:48:21.137Z,23.43
2023-04-30T14:50:26.322Z,23.36
2023-04-30T14:52:31.359Z,23.36
2023-04-30T14:54:36.407Z,23.31
2023-04-30T14:56:41.487Z,23.34
2023-04-30T14:58:46.528Z,23.34
2023-04-30T15:00:51.668Z,23.33
2023-04-30T15:02:57.117Z,23.28
2023-04-30T15:05:02.645Z,23.26
2023-04-30T15:07:07.758Z,23.22
2023-04-30T15:09:12.856Z,23.23
2023-04-30T15:11:17.897Z,23.2
2023-04-30T15:13:23.003Z,23.11
2023-04-30T15:15:28.199Z,23.07
2023-04-30T15:17:33.432Z,23.08
2023-04-30T15:19:38.624Z,23.09
2023-04-30T15:21:43.652Z,23.1
2023-04-30T15:23:51.890Z,23.12
2023-04-30T15:25:56.937Z,23.1
2023-04-30T15:28:02.025Z,23.15
2023-04-30T15:30:07.127Z,23.2
2023-04-30T15:32:12.296Z,23.19
2023-04-30T15:34:17.405Z,23.18
2023-04-30T15:36:22.507Z,23.16
2023-04-30T15:38:27.668Z,23.19
2023-04-30T15:40:32.701Z,23.18
2023-04-30T15:42:37.777Z,23.17
2023-04-30T15:44:42.787Z,23.17
2023-04-30T15:46:47.923Z,23.14
2023-04-30T15:48:53.228Z,23.1
2023-04-30T15:50:58.260Z,23.13
2023-04-30T15:53:03.336Z,23.23
2023-04-30T15:55:08.511Z,23.35
2023-04-30T15:57:13.603Z,23.45
2023-04-30T15:59:19.765Z,23.54
2023-04-30T16:01:25.024Z,23.63
2023-04-30T16:03:30.285Z,23.71
2023-04-30T16:05:35.972Z,23.79
2023-04-30T16:07:43.115Z,23.88
2023-04-30T16:09:48.710Z,23.97
2023-04-30T16:11:53.748Z,24.04
2023-04-30T16:13:58.749Z,24.14
2023-04-30T16:16:03.781Z,24.21
2023-04-30T16:18:08.941Z,24.28
2023-04-30T16:20:13.974Z,24.31
2023-04-30T16:22:19.056Z,24.32
2023-04-30T16:24:24.091Z,24.32
2023-04-30T16:26:29.346Z,24.32
2023-04-30T16:28:34.401Z,24.32
2023-04-30T16:30:39.600Z,24.32
2023-04-30T16:32:44.821Z,24.31
2023-04-30T16:34:50.236Z,24.3
2023-04-30T16:36:55.272Z,24.31
2023-04-30T16:39:00.458Z,24.28
2023-04-30T16:41:05.722Z,24.29
2023-04-30T16:43:10.783Z,24.29
2023-04-30T16:45:15.886Z,24.31
2023-04-30T16:47:21.254Z,24.31
2023-04-30T16:49:26.584Z,24.31
2023-04-30T16:51:31.728Z,24.29
2023-04-30T16:53:36.856Z,24.28
2023-04-30T16:55:42.017Z,24.26
2023-04-30T16:57:47.062Z,24.27
2023-04-30T16:59:52.156Z,24.25
2023-04-30T17:01:58.157Z,24.25
2023-04-30T17:04:03.228Z,24.25
2023-04-30T17:06:08.803Z,24.24
2023-04-30T17:08:14.285Z,24.24
2023-04-30T17:10:19.341Z,24.21
2023-04-30T17:12:24.403Z,24.2
2023-04-30T17:14:29.465Z,24.2
2023-04-30T17:16:34.532Z,24.21
2023-04-30T17:18:40.017Z,24.19
2023-04-30T17:20:45.122Z,24.19
2023-04-30T17:22:50.162Z,24.19
2023-04-30T17:24:55.509Z,24.19
2023-04-30T17:27:04.768Z,24.17
2023-04-30T17:29:09.885Z,24.15
2023-04-30T17:31:15.023Z,24.16
2023-04-30T17:33:20.256Z,24.12
2023-04-30T17:35:25.435Z,24.16
2023-04-30T17:37:30.497Z,24.12
2023-04-30T17:39:35.821Z,24.11
2023-04-30T17:41:40.891Z,24.13
2023-04-30T17:43:46.062Z,24.14
2023-04-30T17:45:51.274Z,24.17
2023-04-30T17:47:56.882Z,24.21
2023-04-30T17:50:02.108Z,24.26
2023-04-30T17:52:07.250Z,24.29
2023-04-30T17:54:12.681Z,24.33
2023-04-30T17:56:17.813Z,24.36
2023-04-30T17:58:23.061Z,24.39
2023-04-30T18:00:28.183Z,24.41
2023-04-30T18:02:33.283Z,24.41
2023-04-30T18:04:38.873Z,24.35
2023-04-30T18:06:44.086Z,24.34
2023-04-30T18:08:49.331Z,24.34
2023-04-30T18:10:54.504Z,24.33
2023-04-30T18:12:59.623Z,24.34
2023-04-30T18:15:04.746Z,24.33
2023-04-30T18:17:09.787Z,24.31
2023-04-30T18:19:14.877Z,24.33
2023-04-30T18:21:19.972Z,24.33
2023-04-30T18:23:25.007Z,24.33
2023-04-30T18:25:30.165Z,24.34
2023-04-30T18:27:35.242Z,24.34
2023-04-30T18:29:40.336Z,24.36
2023-04-30T18:31:45.548Z,24.36
2023-04-30T18:33:50.856Z,24.36
2023-04-30T18:35:56.170Z,24.35
2023-04-30T18:38:01.277Z,24.37
2023-04-30T18:40:06.371Z,24.34
2023-04-30T18:42:11.537Z,24.36
2023-04-30T18:44:16.626Z,24.37
2023-04-30T18:46:22.189Z,24.37
2023-04-30T18:48:27.779Z,24.38
2023-04-30T18:50:32.928Z,24.41
2023-04-30T18:52:38.071Z,24.42
2023-04-30T18:54:43.156Z,24.39
2023-04-30T18:56:48.351Z,24.4
2023-04-30T18:58:53.405Z,24.4
2023-04-30T19:00:58.615Z,24.43
2023-04-30T19:03:04.032Z,24.47
2023-04-30T19:05:09.381Z,24.49
2023-04-30T19:07:14.589Z,24.49
2023-04-30T19:09:20.944Z,24.47
2023-04-30T19:11:26.072Z,24.48
2023-04-30T19:13:31.199Z,24.51
2023-04-30T19:15:36.374Z,24.52
2023-04-30T19:17:41.608Z,24.56
2023-04-30T19:19:46.909Z,24.6
2023-04-30T19:21:51.983Z,24.65
2023-04-30T19:23:57.069Z,24.71
2023-04-30T19:26:02.328Z,24.78
2023-04-30T19:28:07.442Z,24.84
2023-04-30T19:30:12.581Z,24.9
2023-04-30T19:32:17.719Z,24.94
2023-04-30T19:34:23.054Z,24.91
2023-04-30T19:36:28.406Z,24.89
2023-04-30T19:38:33.661Z,24.88
2023-04-30T19:40:39.308Z,24.86
2023-04-30T19:42:44.621Z,24.83
2023-04-30T19:44:49.755Z,24.8
2023-04-30T19:46:55.023Z,24.78
2023-04-30T19:49:00.169Z,24.75
2023-04-30T19:51:05.257Z,24.76
2023-04-30T19:53:10.531Z,24.75
2023-04-30T19:55:15.738Z,24.72
2023-04-30T19:57:20.964Z,24.71
2023-04-30T19:59:26.057Z,24.7
2023-04-30T20:01:31.237Z,24.68
2023-04-30T20:03:36.939Z,24.7
2023-04-30T20:05:42.579Z,24.76
2023-04-30T20:07:48.095Z,24.81
2023-04-30T20:09:53.684Z,24.87
2023-04-30T20:11:59.861Z,24.88
2023-04-30T20:14:05.248Z,24.9
2023-04-30T20:16:10.485Z,24.87
2023-04-30T20:18:15.823Z,24.85
2023-04-30T20:20:21.042Z,24.82
2023-04-30T20:22:26.154Z,24.8
2023-04-30T20:24:31.353Z,24.79
2023-04-30T20:26:36.428Z,24.78
2023-04-30T20:28:41.547Z,24.77
2023-04-30T20:30:48.270Z,24.77
2023-04-30T20:32:53.478Z,24.75
2023-04-30T20:34:58.774Z,24.76
2023-04-30T20:37:03.996Z,24.77
2023-04-30T20:39:09.056Z,24.76
2023-04-30T20:41:14.204Z,24.79
2023-04-30T20:43:19.309Z,24.77
2023-04-30T20:45:24.489Z,24.77
2023-04-30T20:47:29.637Z,24.78
2023-04-30T20:49:34.861Z,24.75
2023-04-30T20:51:40.034Z,24.75
2023-04-30T20:53:45.161Z,24.74
2023-04-30T20:55:50.246Z,24.77
2023-04-30T20:57:55.345Z,24.8
2023-04-30T21:00:00.424Z,24.8
2023-04-30T21:02:05.545Z,24.81
2023-04-30T21:04:10.981Z,24.81
2023-04-30T21:06:16.065Z,24.81
2023-04-30T21:08:21.559Z,24.77
2023-04-30T21:10:26.628Z,24.75
2023-04-30T21:12:31.788Z,24.71
2023-04-30T21:14:36.857Z,24.66
2023-04-30T21:16:42.074Z,24.64
2023-04-30T21:18:47.403Z,24.64
2023-04-30T21:20:52.727Z,24.63
2023-04-30T21:22:57.926Z,24.62
2023-04-30T21:25:03.174Z,24.58
2023-04-30T21:27:08.352Z,24.56
2023-04-30T21:29:13.461Z,24.53
2023-04-30T21:31:18.608Z,24.5
2023-04-30T21:33:23.879Z,24.47
2023-04-30T21:35:28.981Z,24.46
2023-04-30T21:37:34.010Z,24.45
2023-04-30T21:39:39.157Z,24.41
2023-04-30T21:41:44.369Z,24.41
2023-04-30T21:43:49.451Z,24.4
2023-04-30T21:45:54.595Z,24.4
2023-04-30T21:47:59.845Z,24.37
2023-04-30T21:50:05.134Z,24.37
2023-04-30T21:52:10.192Z,24.37
2023-04-30T21:54:15.276Z,24.36
2023-04-30T21:56:21.700Z,24.35
2023-04-30T21:58:26.869Z,24.35
2023-04-30T22:00:31.899Z,24.34
2023-04-30T22:02:37.076Z,24.33
2023-04-30T22:04:42.510Z,24.3
2023-04-30T22:06:47.622Z,24.3
2023-04-30T22:08:53.068Z,24.29
2023-04-30T22:10:58.148Z,24.28
2023-04-30T22:13:03.520Z,24.28
2023-04-30T22:15:08.591Z,24.27
2023-04-30T22:17:13.828Z,24.25
2023-04-30T22:19:18.914Z,24.24
2023-04-30T22:21:24.016Z,24.25
2023-04-30T22:23:29.290Z,24.25
2023-04-30T22:25:34.280Z,24.24
2023-04-30T22:27:39.517Z,24.23
2023-04-30T22:29:44.564Z,24.22
2023-04-30T22:31:49.646Z,24.21
2023-04-30T22:33:54.999Z,24.21
2023-04-30T22:36:00.099Z,24.21
2023-04-30T22:38:05.252Z,24.21
2023-04-30T22:40:10.313Z,24.2
2023-04-30T22:42:15.534Z,24.19
2023-04-30T22:44:20.643Z,24.19
2023-04-30T22:46:25.734Z,24.19
2023-04-30T22:48:30.987Z,24.18
2023-04-30T22:50:36.143Z,24.17
2023-04-30T22:52:41.202Z,24.16
2023-04-30T22:54:46.244Z,24.14
2023-04-30T22:56:51.433Z,24.15
2023-04-30T22:58:56.526Z,24.12
2023-04-30T23:01:01.542Z,24.13
2023-04-30T23:03:06.836Z,24.12
2023-04-30T23:05:12.171Z,24.14
2023-04-30T23:07:17.347Z,24.14
2023-04-30T23:09:22.413Z,24.13
2023-04-30T23:11:27.496Z,24.13
2023-04-30T23:13:32.528Z,24.12
2023-04-30T23:15:37.656Z,24.12
2023-04-30T23:17:42.723Z,24.08
2023-04-30T23:19:47.958Z,24.09
2023-04-30T23:21:52.998Z,24.08
2023-04-30T23:23:58.002Z,24.08
2023-04-30T23:26:03.093Z,24.08
2023-04-30T23:28:08.145Z,24.07
2023-04-30T23:30:13.360Z,24.07
2023-04-30T23:32:18.575Z,24.06
2023-04-30T23:34:23.963Z,24.05
2023-04-30T23:36:29.046Z,24.04
2023-04-30T23:38:34.310Z,24.03
2023-04-30T23:40:39.351Z,24.04
2023-04-30T23:42:45.366Z,24.05
2023-04-30T23:44:50.568Z,24.05
2023-04-30T23:46:55.697Z,24.04
2023-04-30T23:49:00.778Z,24.03
2023-04-30T23:51:06.005Z,24.04
2023-04-30T23:53:11.071Z,24.05
2023-04-30T23:55:16.198Z,24.07
2023-04-30T23:57:21.298Z,24.06
2023-04-30T23:59:26.370Z,24.07
